sensor_id;sensor_type;location;lat;lon;timestamp;temperature;humidity
47514;DHT22;33951;51.988;5.910;2023-02-28T00:00:12;2.40;99.90
47514;DHT22;33951;51.988;5.910;2023-02-28T00:02:43;2.40;99.90
47514;DHT22;33951;51.988;5.910;2023-02-28T00:08:23;2.60;99.90
47514;DHT22;33951;51.988;5.910;2023-02-28T00:11:22;2.60;99.90
47514;DHT22;33951;51.988;5.910;2023-02-28T00:14:07;2.70;99.90
47514;DHT22;33951;51.988;5.910;2023-02-28T00:16:48;2.80;99.90
47514;DHT22;33951;51.988;5.910;2023-02-28T00:19:21;2.90;99.90
47514;DHT22;33951;51.988;5.910;2023-02-28T00:21:52;3.00;99.90
47514;DHT22;33951;51.988;5.910;2023-02-28T00:24:33;3.10;99.90
47514;DHT22;33951;51.988;5.910;2023-02-28T00:27:28;3.10;99.90
47514;DHT22;33951;51.988;5.910;2023-02-28T00:29:56;3.10;99.90
47514;DHT22;33951;51.988;5.910;2023-02-28T00:32:27;3.20;99.90
47514;DHT22;33951;51.988;5.910;2023-02-28T00:34:56;3.00;99.90
47514;DHT22;33951;51.988;5.910;2023-02-28T00:37:30;3.20;99.90
47514;DHT22;33951;51.988;5.910;2023-02-28T00:40:01;3.30;99.90
47514;DHT22;33951;51.988;5.910;2023-02-28T00:42:33;3.30;99.90
47514;DHT22;33951;51.988;5.910;2023-02-28T00:45:18;3.50;99.90
47514;DHT22;33951;51.988;5.910;2023-02-28T00:47:56;3.60;99.90
47514;DHT22;33951;51.988;5.910;2023-02-28T00:56:34;3.80;99.90
47514;DHT22;33951;51.988;5.910;2023-02-28T00:59:30;3.90;99.90
47514;DHT22;33951;51.988;5.910;2023-02-28T05:02:48;3.70;99.90
47514;DHT22;33951;51.988;5.910;2023-02-28T05:05:14;3.70;99.90
47514;DHT22;33951;51.988;5.910;2023-02-28T05:07:43;3.60;99.90
47514;DHT22;33951;51.988;5.910;2023-02-28T05:10:12;3.60;99.90
47514;DHT22;33951;51.988;5.910;2023-02-28T05:12:37;3.70;99.90
47514;DHT22;33951;51.988;5.910;2023-02-28T05:15:04;3.70;99.90
47514;DHT22;33951;51.988;5.910;2023-02-28T05:17:39;3.80;99.90
47514;DHT22;33951;51.988;5.910;2023-02-28T05:20:09;3.80;99.90
47514;DHT22;33951;51.988;5.910;2023-02-28T05:25:34;3.80;99.90
47514;DHT22;33951;51.988;5.910;2023-02-28T05:28:10;3.80;99.90
47514;DHT22;33951;51.988;5.910;2023-02-28T05:30:55;3.80;99.90
47514;DHT22;33951;51.988;5.910;2023-02-28T05:33:26;3.70;99.90
47514;DHT22;33951;51.988;5.910;2023-02-28T05:36:18;3.80;99.90
47514;DHT22;33951;51.988;5.910;2023-02-28T05:39:02;3.80;99.90
47514;DHT22;33951;51.988;5.910;2023-02-28T05:41:43;3.70;99.90
47514;DHT22;33951;51.988;5.910;2023-02-28T05:44:17;3.70;99.90
47514;DHT22;33951;51.988;5.910;2023-02-28T05:47:01;3.80;99.90
47514;DHT22;33951;51.988;5.910;2023-02-28T05:49:36;3.90;99.90
47514;DHT22;33951;51.988;5.910;2023-02-28T05:52:15;3.80;99.90
47514;DHT22;33951;51.988;5.910;2023-02-28T05:54:45;3.80;99.90
47514;DHT22;33951;51.988;5.910;2023-02-28T05:57:16;3.70;99.90
47514;DHT22;33951;51.988;5.910;2023-02-28T05:59:47;3.70;99.90
47514;DHT22;33951;51.988;5.910;2023-02-28T06:02:19;3.70;99.90
47514;DHT22;33951;51.988;5.910;2023-02-28T06:08:09;3.80;99.90
47514;DHT22;33951;51.988;5.910;2023-02-28T06:10:50;4.00;99.90
47514;DHT22;33951;51.988;5.910;2023-02-28T06:13:21;3.80;99.90
47514;DHT22;33951;51.988;5.910;2023-02-28T06:16:15;4.00;99.90
47514;DHT22;33951;51.988;5.910;2023-02-28T06:18:45;4.00;99.90
47514;DHT22;33951;51.988;5.910;2023-02-28T06:21:30;4.10;99.90
47514;DHT22;33951;51.988;5.910;2023-02-28T06:24:08;4.10;99.90
47514;DHT22;33951;51.988;5.910;2023-02-28T06:27:16;4.10;99.90
47514;DHT22;33951;51.988;5.910;2023-02-28T06:30:11;4.10;99.90
47514;DHT22;33951;51.988;5.910;2023-02-28T06:35:29;3.90;99.90
47514;DHT22;33951;51.988;5.910;2023-02-28T06:38:17;4.00;99.90
47514;DHT22;33951;51.988;5.910;2023-02-28T06:40:58;4.10;99.90
47514;DHT22;33951;51.988;5.910;2023-02-28T06:43:36;3.90;99.90
47514;DHT22;33951;51.988;5.910;2023-02-28T06:46:34;4.00;99.90
47514;DHT22;33951;51.988;5.910;2023-02-28T06:49:17;4.10;99.90
47514;DHT22;33951;51.988;5.910;2023-02-28T06:51:51;4.20;99.90
47514;DHT22;33951;51.988;5.910;2023-02-28T06:54:19;4.20;99.90
47514;DHT22;33951;51.988;5.910;2023-02-28T06:56:45;4.20;99.90
47514;DHT22;33951;51.988;5.910;2023-02-28T06:59:20;4.20;99.90
47514;DHT22;33951;51.988;5.910;2023-02-28T07:02:15;4.10;99.90
47514;DHT22;33951;51.988;5.910;2023-02-28T07:04:45;4.20;99.90
47514;DHT22;33951;51.988;5.910;2023-02-28T07:07:29;4.20;99.90
47514;DHT22;33951;51.988;5.910;2023-02-28T07:09:58;4.10;99.90
47514;DHT22;33951;51.988;5.910;2023-02-28T07:12:36;4.20;99.90
47514;DHT22;33951;51.988;5.910;2023-02-28T07:15:11;4.10;99.90
47514;DHT22;33951;51.988;5.910;2023-02-28T07:17:39;4.00;99.90
47514;DHT22;33951;51.988;5.910;2023-02-28T07:20:08;4.10;99.90
47514;DHT22;33951;51.988;5.910;2023-02-28T07:22:40;4.10;99.90
47514;DHT22;33951;51.988;5.910;2023-02-28T07:25:10;4.10;99.90
47514;DHT22;33951;51.988;5.910;2023-02-28T07:27:49;4.20;99.90
47514;DHT22;33951;51.988;5.910;2023-02-28T07:30:17;4.30;99.90
47514;DHT22;33951;51.988;5.910;2023-02-28T07:33:00;4.30;99.90
47514;DHT22;33951;51.988;5.910;2023-02-28T07:42:41;4.20;99.90
47514;DHT22;33951;51.988;5.910;2023-02-28T08:01:35;4.10;99.90
47514;DHT22;33951;51.988;5.910;2023-02-28T08:07:57;4.00;99.90
47514;DHT22;33951;51.988;5.910;2023-02-28T08:11:07;4.00;99.90
47514;DHT22;33951;51.988;5.910;2023-02-28T08:13:38;4.00;99.90
47514;DHT22;33951;51.988;5.910;2023-02-28T08:16:36;4.00;99.90
47514;DHT22;33951;51.988;5.910;2023-02-28T08:19:49;4.10;99.90
47514;DHT22;33951;51.988;5.910;2023-02-28T08:22:20;4.00;99.90
47514;DHT22;33951;51.988;5.910;2023-02-28T08:24:46;4.00;99.90
47514;DHT22;33951;51.988;5.910;2023-02-28T08:27:11;4.00;99.90
47514;DHT22;33951;51.988;5.910;2023-02-28T08:29:38;4.00;99.90
47514;DHT22;33951;51.988;5.910;2023-02-28T08:32:05;4.00;99.90
47514;DHT22;33951;51.988;5.910;2023-02-28T08:34:31;4.00;99.90
47514;DHT22;33951;51.988;5.910;2023-02-28T08:36:57;3.90;99.90
47514;DHT22;33951;51.988;5.910;2023-02-28T08:39:22;3.90;99.90
47514;DHT22;33951;51.988;5.910;2023-02-28T08:41:48;3.90;99.90
47514;DHT22;33951;51.988;5.910;2023-02-28T08:44:13;3.90;99.90
47514;DHT22;33951;51.988;5.910;2023-02-28T08:46:39;3.90;99.90
47514;DHT22;33951;51.988;5.910;2023-02-28T08:49:05;3.90;99.90
47514;DHT22;33951;51.988;5.910;2023-02-28T08:51:30;3.90;99.90
47514;DHT22;33951;51.988;5.910;2023-02-28T08:53:59;4.00;99.90
47514;DHT22;33951;51.988;5.910;2023-02-28T08:56:26;4.20;99.90
47514;DHT22;33951;51.988;5.910;2023-02-28T08:58:53;4.20;99.90
47514;DHT22;33951;51.988;5.910;2023-02-28T09:01:23;4.20;99.90
47514;DHT22;33951;51.988;5.910;2023-02-28T09:03:50;4.20;99.90
47514;DHT22;33951;51.988;5.910;2023-02-28T09:06:18;4.30;99.90
47514;DHT22;33951;51.988;5.910;2023-02-28T09:08:47;4.30;99.90
47514;DHT22;33951;51.988;5.910;2023-02-28T09:11:13;4.30;99.90
47514;DHT22;33951;51.988;5.910;2023-02-28T09:13:39;4.30;99.90
47514;DHT22;33951;51.988;5.910;2023-02-28T09:16:07;4.30;99.90
47514;DHT22;33951;51.988;5.910;2023-02-28T09:18:35;4.30;99.90
47514;DHT22;33951;51.988;5.910;2023-02-28T09:21:05;4.40;99.90
47514;DHT22;33951;51.988;5.910;2023-02-28T09:23:31;4.50;99.90
47514;DHT22;33951;51.988;5.910;2023-02-28T09:25:57;4.60;99.90
47514;DHT22;33951;51.988;5.910;2023-02-28T09:28:23;4.60;99.40
47514;DHT22;33951;51.988;5.910;2023-02-28T09:30:51;4.60;99.40
47514;DHT22;33951;51.988;5.910;2023-02-28T09:33:18;4.60;98.10
47514;DHT22;33951;51.988;5.910;2023-02-28T09:35:46;4.60;97.60
47514;DHT22;33951;51.988;5.910;2023-02-28T09:38:12;4.60;97.80
47514;DHT22;33951;51.988;5.910;2023-02-28T09:40:51;4.70;98.10
47514;DHT22;33951;51.988;5.910;2023-02-28T09:43:20;4.80;98.00
47514;DHT22;33951;51.988;5.910;2023-02-28T09:45:55;4.90;97.60
47514;DHT22;33951;51.988;5.910;2023-02-28T09:48:32;5.00;97.40
47514;DHT22;33951;51.988;5.910;2023-02-28T09:51:10;5.00;98.10
47514;DHT22;33951;51.988;5.910;2023-02-28T09:53:38;5.20;98.30
47514;DHT22;33951;51.988;5.910;2023-02-28T09:56:10;5.20;97.70
47514;DHT22;33951;51.988;5.910;2023-02-28T09:58:49;5.20;97.60
47514;DHT22;33951;51.988;5.910;2023-02-28T10:01:57;5.30;97.30
47514;DHT22;33951;51.988;5.910;2023-02-28T10:07:21;5.50;97.10
47514;DHT22;33951;51.988;5.910;2023-02-28T10:09:53;5.50;96.60
47514;DHT22;33951;51.988;5.910;2023-02-28T10:12:20;5.60;96.80
47514;DHT22;33951;51.988;5.910;2023-02-28T10:14:49;5.80;96.80
47514;DHT22;33951;51.988;5.910;2023-02-28T10:17:25;5.80;96.70
47514;DHT22;33951;51.988;5.910;2023-02-28T10:19:59;6.00;97.10
47514;DHT22;33951;51.988;5.910;2023-02-28T10:22:38;6.30;96.30
47514;DHT22;33951;51.988;5.910;2023-02-28T10:27:54;6.60;95.30
47514;DHT22;33951;51.988;5.910;2023-02-28T10:30:21;6.70;95.50
47514;DHT22;33951;51.988;5.910;2023-02-28T10:32:51;6.90;94.40
47514;DHT22;33951;51.988;5.910;2023-02-28T10:35:20;6.90;93.60
47514;DHT22;33951;51.988;5.910;2023-02-28T10:37:49;7.10;95.00
47514;DHT22;33951;51.988;5.910;2023-02-28T10:42:56;7.40;93.60
47514;DHT22;33951;51.988;5.910;2023-02-28T10:45:22;7.50;93.80
47514;DHT22;33951;51.988;5.910;2023-02-28T10:47:53;7.60;94.70
47514;DHT22;33951;51.988;5.910;2023-02-28T10:59:01;8.10;93.80
47514;DHT22;33951;51.988;5.910;2023-02-28T11:01:40;8.20;93.10
47514;DHT22;33951;51.988;5.910;2023-02-28T11:06:59;8.50;93.20
47514;DHT22;33951;51.988;5.910;2023-02-28T11:11:52;8.70;92.70
47514;DHT22;33951;51.988;5.910;2023-02-28T11:14:22;9.00;93.30
47514;DHT22;33951;51.988;5.910;2023-02-28T11:16:50;9.30;92.80
47514;DHT22;33951;51.988;5.910;2023-02-28T11:19:24;9.40;92.90
47514;DHT22;33951;51.988;5.910;2023-02-28T11:22:01;9.50;92.70
47514;DHT22;33951;51.988;5.910;2023-02-28T11:24:28;9.60;92.10
47514;DHT22;33951;51.988;5.910;2023-02-28T11:26:56;9.70;91.40
47514;DHT22;33951;51.988;5.910;2023-02-28T11:29:27;9.80;91.90
47514;DHT22;33951;51.988;5.910;2023-02-28T11:34:30;10.30;91.30
47514;DHT22;33951;51.988;5.910;2023-02-28T11:36:57;10.40;91.70
47514;DHT22;33951;51.988;5.910;2023-02-28T11:39:25;10.60;91.00
47514;DHT22;33951;51.988;5.910;2023-02-28T11:42:04;10.70;90.60
47514;DHT22;33951;51.988;5.910;2023-02-28T11:55:32;11.30;88.30
47514;DHT22;33951;51.988;5.910;2023-02-28T12:00:57;11.30;88.50
47514;DHT22;33951;51.988;5.910;2023-02-28T12:09:03;11.20;87.70
47514;DHT22;33951;51.988;5.910;2023-02-28T12:11:51;11.20;86.60
47514;DHT22;33951;51.988;5.910;2023-02-28T12:22:27;11.70;86.70
47514;DHT22;33951;51.988;5.910;2023-02-28T12:27:56;12.10;85.00
47514;DHT22;33951;51.988;5.910;2023-02-28T12:30:34;12.10;84.50
47514;DHT22;33951;51.988;5.910;2023-02-28T12:33:11;12.20;84.30
47514;DHT22;33951;51.988;5.910;2023-02-28T12:35:54;12.20;83.90
47514;DHT22;33951;51.988;5.910;2023-02-28T12:38:47;12.20;83.00
47514;DHT22;33951;51.988;5.910;2023-02-28T12:41:18;12.30;82.80
47514;DHT22;33951;51.988;5.910;2023-02-28T12:44:07;12.20;82.30
47514;DHT22;33951;51.988;5.910;2023-02-28T12:46:38;12.10;84.10
47514;DHT22;33951;51.988;5.910;2023-02-28T12:49:16;12.00;83.70
47514;DHT22;33951;51.988;5.910;2023-02-28T12:51:43;12.10;83.40
47514;DHT22;33951;51.988;5.910;2023-02-28T12:54:19;12.30;82.00
47514;DHT22;33951;51.988;5.910;2023-02-28T12:57:06;12.20;81.20
47514;DHT22;33951;51.988;5.910;2023-02-28T12:59:48;12.20;81.50
47514;DHT22;33951;51.988;5.910;2023-02-28T13:05:22;12.30;80.20
47514;DHT22;33951;51.988;5.910;2023-02-28T13:10:48;12.20;80.10
47514;DHT22;33951;51.988;5.910;2023-02-28T13:13:23;12.40;80.00
47514;DHT22;33951;51.988;5.910;2023-02-28T13:20:55;12.60;79.70
47514;DHT22;33951;51.988;5.910;2023-02-28T13:23:56;12.30;78.60
47514;DHT22;33951;51.988;5.910;2023-02-28T13:34:31;12.90;79.20
47514;DHT22;33951;51.988;5.910;2023-02-28T13:39:49;13.30;79.10
47514;DHT22;33951;51.988;5.910;2023-02-28T13:47:44;13.30;77.60
47514;DHT22;33951;51.988;5.910;2023-02-28T14:07:06;13.20;77.80
47514;DHT22;33951;51.988;5.910;2023-02-28T14:09:39;13.10;77.00
47514;DHT22;33951;51.988;5.910;2023-02-28T14:18:30;13.60;78.10
47514;DHT22;33951;51.988;5.910;2023-02-28T14:53:35;14.10;75.80
47514;DHT22;33951;51.988;5.910;2023-02-28T14:57:12;14.10;75.60
47514;DHT22;33951;51.988;5.910;2023-02-28T15:07:14;13.50;75.70
47514;DHT22;33951;51.988;5.910;2023-02-28T15:09:41;13.10;75.30
47514;DHT22;33951;51.988;5.910;2023-02-28T15:12:07;13.10;76.60
47514;DHT22;33951;51.988;5.910;2023-02-28T15:14:39;13.10;75.70
47514;DHT22;33951;51.988;5.910;2023-02-28T15:17:15;13.10;75.30
47514;DHT22;33951;51.988;5.910;2023-02-28T15:19:45;13.00;75.50
47514;DHT22;33951;51.988;5.910;2023-02-28T15:22:17;12.70;76.10
47514;DHT22;33951;51.988;5.910;2023-02-28T15:24:51;12.70;75.50
47514;DHT22;33951;51.988;5.910;2023-02-28T15:27:28;12.70;76.70
47514;DHT22;33951;51.988;5.910;2023-02-28T15:29:59;12.50;76.80
47514;DHT22;33951;51.988;5.910;2023-02-28T15:34:59;12.30;75.70
47514;DHT22;33951;51.988;5.910;2023-02-28T15:38:25;12.10;75.90
47514;DHT22;33951;51.988;5.910;2023-02-28T15:40:56;11.90;75.80
47514;DHT22;33951;51.988;5.910;2023-02-28T15:43:34;11.70;76.40
47514;DHT22;33951;51.988;5.910;2023-02-28T15:46:02;11.50;76.30
47514;DHT22;33951;51.988;5.910;2023-02-28T15:48:38;11.30;76.10
47514;DHT22;33951;51.988;5.910;2023-02-28T15:53:51;11.40;77.70
47514;DHT22;33951;51.988;5.910;2023-02-28T15:56:55;11.20;76.60
47514;DHT22;33951;51.988;5.910;2023-02-28T15:59:28;10.80;76.70
47514;DHT22;33951;51.988;5.910;2023-02-28T16:04:35;10.50;78.20
47514;DHT22;33951;51.988;5.910;2023-02-28T16:07:05;10.50;78.40
47514;DHT22;33951;51.988;5.910;2023-02-28T16:09:32;10.30;78.60
47514;DHT22;33951;51.988;5.910;2023-02-28T16:12:02;9.90;78.50
47514;DHT22;33951;51.988;5.910;2023-02-28T16:14:29;9.70;79.30
47514;DHT22;33951;51.988;5.910;2023-02-28T16:17:06;9.60;80.20
47514;DHT22;33951;51.988;5.910;2023-02-28T16:19:34;9.40;79.90
47514;DHT22;33951;51.988;5.910;2023-02-28T16:22:00;9.30;80.10
47514;DHT22;33951;51.988;5.910;2023-02-28T16:24:26;9.20;81.00
47514;DHT22;33951;51.988;5.910;2023-02-28T16:26:53;9.00;81.00
47514;DHT22;33951;51.988;5.910;2023-02-28T16:29:32;9.00;81.50
47514;DHT22;33951;51.988;5.910;2023-02-28T16:31:57;8.60;81.60
47514;DHT22;33951;51.988;5.910;2023-02-28T16:34:24;8.60;82.10
47514;DHT22;33951;51.988;5.910;2023-02-28T16:36:50;8.60;82.90
47514;DHT22;33951;51.988;5.910;2023-02-28T16:39:16;8.60;82.70
47514;DHT22;33951;51.988;5.910;2023-02-28T16:41:43;8.40;83.10
47514;DHT22;33951;51.988;5.910;2023-02-28T16:44:24;8.40;83.00
47514;DHT22;33951;51.988;5.910;2023-02-28T16:46:52;8.30;83.30
47514;DHT22;33951;51.988;5.910;2023-02-28T16:49:18;8.20;84.10
47514;DHT22;33951;51.988;5.910;2023-02-28T16:51:43;8.10;84.10
47514;DHT22;33951;51.988;5.910;2023-02-28T16:54:09;8.10;84.10
47514;DHT22;33951;51.988;5.910;2023-02-28T16:56:38;7.90;84.60
47514;DHT22;33951;51.988;5.910;2023-02-28T16:59:05;8.00;84.20
47514;DHT22;33951;51.988;5.910;2023-02-28T17:01:30;7.90;84.70
47514;DHT22;33951;51.988;5.910;2023-02-28T17:03:56;7.90;84.80
47514;DHT22;33951;51.988;5.910;2023-02-28T17:06:27;7.80;84.60
47514;DHT22;33951;51.988;5.910;2023-02-28T17:08:54;7.60;85.00
47514;DHT22;33951;51.988;5.910;2023-02-28T17:11:20;7.60;85.30
47514;DHT22;33951;51.988;5.910;2023-02-28T17:13:47;7.50;85.90
47514;DHT22;33951;51.988;5.910;2023-02-28T17:16:22;7.50;85.90
47514;DHT22;33951;51.988;5.910;2023-02-28T17:18:48;7.50;86.20
47514;DHT22;33951;51.988;5.910;2023-02-28T17:21:16;7.40;86.00
47514;DHT22;33951;51.988;5.910;2023-02-28T17:23:42;7.30;86.70
47514;DHT22;33951;51.988;5.910;2023-02-28T17:26:12;7.20;87.00
47514;DHT22;33951;51.988;5.910;2023-02-28T17:28:39;7.20;87.40
47514;DHT22;33951;51.988;5.910;2023-02-28T17:31:04;7.00;87.60
47514;DHT22;33951;51.988;5.910;2023-02-28T17:33:33;6.90;87.60
47514;DHT22;33951;51.988;5.910;2023-02-28T17:35:59;6.90;88.20
47514;DHT22;33951;51.988;5.910;2023-02-28T17:38:24;6.90;88.20
47514;DHT22;33951;51.988;5.910;2023-02-28T17:40:50;6.70;88.50
47514;DHT22;33951;51.988;5.910;2023-02-28T17:43:15;6.60;88.70
47514;DHT22;33951;51.988;5.910;2023-02-28T17:45:41;6.40;88.80
47514;DHT22;33951;51.988;5.910;2023-02-28T17:48:10;6.30;89.10
47514;DHT22;33951;51.988;5.910;2023-02-28T17:50:36;6.20;89.30
47514;DHT22;33951;51.988;5.910;2023-02-28T17:53:02;6.20;89.80
47514;DHT22;33951;51.988;5.910;2023-02-28T17:55:27;6.00;90.00
47514;DHT22;33951;51.988;5.910;2023-02-28T17:57:53;5.90;90.00
47514;DHT22;33951;51.988;5.910;2023-02-28T18:00:19;5.80;90.20
47514;DHT22;33951;51.988;5.910;2023-02-28T18:02:48;5.70;90.30
47514;DHT22;33951;51.988;5.910;2023-02-28T18:05:13;5.70;90.20
47514;DHT22;33951;51.988;5.910;2023-02-28T18:07:40;5.70;90.40
47514;DHT22;33951;51.988;5.910;2023-02-28T18:10:15;5.50;90.40
47514;DHT22;33951;51.988;5.910;2023-02-28T18:12:45;5.40;90.70
47514;DHT22;33951;51.988;5.910;2023-02-28T18:15:13;5.40;90.70
47514;DHT22;33951;51.988;5.910;2023-02-28T18:17:40;5.40;90.70
47514;DHT22;33951;51.988;5.910;2023-02-28T18:20:06;5.40;90.70
47514;DHT22;33951;51.988;5.910;2023-02-28T18:22:32;5.30;90.90
47514;DHT22;33951;51.988;5.910;2023-02-28T18:24:59;5.30;91.00
47514;DHT22;33951;51.988;5.910;2023-02-28T18:27:24;5.20;91.20
47514;DHT22;33951;51.988;5.910;2023-02-28T18:29:50;5.20;91.20
47514;DHT22;33951;51.988;5.910;2023-02-28T18:32:16;5.20;91.40
47514;DHT22;33951;51.988;5.910;2023-02-28T18:34:51;5.20;91.60
47514;DHT22;33951;51.988;5.910;2023-02-28T18:37:17;5.10;91.50
47514;DHT22;33951;51.988;5.910;2023-02-28T18:39:43;5.10;91.50
47514;DHT22;33951;51.988;5.910;2023-02-28T18:42:12;5.00;91.60
47514;DHT22;33951;51.988;5.910;2023-02-28T18:44:38;5.00;91.90
47514;DHT22;33951;51.988;5.910;2023-02-28T18:47:04;4.90;92.30
47514;DHT22;33951;51.988;5.910;2023-02-28T18:49:33;4.80;92.20
47514;DHT22;33951;51.988;5.910;2023-02-28T18:52:06;4.80;92.40
47514;DHT22;33951;51.988;5.910;2023-02-28T18:54:31;4.80;92.50
47514;DHT22;33951;51.988;5.910;2023-02-28T18:56:57;4.80;92.50
47514;DHT22;33951;51.988;5.910;2023-02-28T18:59:23;4.70;92.70
47514;DHT22;33951;51.988;5.910;2023-02-28T19:01:48;4.70;92.90
47514;DHT22;33951;51.988;5.910;2023-02-28T19:04:14;4.60;93.10
47514;DHT22;33951;51.988;5.910;2023-02-28T19:06:40;4.60;93.20
47514;DHT22;33951;51.988;5.910;2023-02-28T19:09:07;4.50;93.20
47514;DHT22;33951;51.988;5.910;2023-02-28T19:11:33;4.50;93.20
47514;DHT22;33951;51.988;5.910;2023-02-28T19:13:59;4.50;93.30
47514;DHT22;33951;51.988;5.910;2023-02-28T19:16:25;4.30;93.50
47514;DHT22;33951;51.988;5.910;2023-02-28T19:18:52;4.30;93.80
47514;DHT22;33951;51.988;5.910;2023-02-28T19:21:20;4.40;93.80
47514;DHT22;33951;51.988;5.910;2023-02-28T19:23:46;4.20;93.90
47514;DHT22;33951;51.988;5.910;2023-02-28T19:26:18;4.30;93.90
47514;DHT22;33951;51.988;5.910;2023-02-28T19:28:44;4.30;94.00
47514;DHT22;33951;51.988;5.910;2023-02-28T19:31:22;4.30;94.00
47514;DHT22;33951;51.988;5.910;2023-02-28T19:33:48;4.20;94.10
47514;DHT22;33951;51.988;5.910;2023-02-28T19:36:17;4.20;94.40
47514;DHT22;33951;51.988;5.910;2023-02-28T19:38:43;4.10;94.40
47514;DHT22;33951;51.988;5.910;2023-02-28T19:41:10;4.10;94.50
47514;DHT22;33951;51.988;5.910;2023-02-28T19:43:36;4.10;94.60
47514;DHT22;33951;51.988;5.910;2023-02-28T19:46:02;4.10;94.60
47514;DHT22;33951;51.988;5.910;2023-02-28T19:48:28;4.00;94.90
47514;DHT22;33951;51.988;5.910;2023-02-28T19:51:06;4.00;95.10
47514;DHT22;33951;51.988;5.910;2023-02-28T19:53:39;3.90;95.30
47514;DHT22;33951;51.988;5.910;2023-02-28T19:56:05;4.00;95.20
47514;DHT22;33951;51.988;5.910;2023-02-28T19:58:33;3.90;95.20
47514;DHT22;33951;51.988;5.910;2023-02-28T20:01:09;3.90;95.30
47514;DHT22;33951;51.988;5.910;2023-02-28T20:03:35;3.90;95.30
47514;DHT22;33951;51.988;5.910;2023-02-28T20:06:06;3.90;95.30
47514;DHT22;33951;51.988;5.910;2023-02-28T20:08:32;3.80;95.40
47514;DHT22;33951;51.988;5.910;2023-02-28T20:11:10;3.80;95.80
47514;DHT22;33951;51.988;5.910;2023-02-28T20:13:36;3.80;95.90
47514;DHT22;33951;51.988;5.910;2023-02-28T20:16:05;3.80;96.10
47514;DHT22;33951;51.988;5.910;2023-02-28T20:18:32;3.60;96.20
47514;DHT22;33951;51.988;5.910;2023-02-28T20:20:58;3.60;96.30
47514;DHT22;33951;51.988;5.910;2023-02-28T20:23:24;3.70;96.40
47514;DHT22;33951;51.988;5.910;2023-02-28T20:25:50;3.70;96.50
47514;DHT22;33951;51.988;5.910;2023-02-28T20:28:17;3.60;96.70
47514;DHT22;33951;51.988;5.910;2023-02-28T20:30:44;3.60;96.70
47514;DHT22;33951;51.988;5.910;2023-02-28T20:33:13;3.60;96.80
47514;DHT22;33951;51.988;5.910;2023-02-28T20:35:39;3.60;96.90
47514;DHT22;33951;51.988;5.910;2023-02-28T20:38:05;3.50;97.00
47514;DHT22;33951;51.988;5.910;2023-02-28T20:40:31;3.50;97.10
47514;DHT22;33951;51.988;5.910;2023-02-28T20:42:59;3.40;97.30
47514;DHT22;33951;51.988;5.910;2023-02-28T20:45:26;3.50;97.40
47514;DHT22;33951;51.988;5.910;2023-02-28T20:47:52;3.40;97.40
47514;DHT22;33951;51.988;5.910;2023-02-28T20:50:18;3.40;97.60
47514;DHT22;33951;51.988;5.910;2023-02-28T20:52:44;3.50;97.70
47514;DHT22;33951;51.988;5.910;2023-02-28T20:55:10;3.30;97.70
47514;DHT22;33951;51.988;5.910;2023-02-28T20:57:37;3.30;97.90
47514;DHT22;33951;51.988;5.910;2023-02-28T21:00:04;3.30;97.80
47514;DHT22;33951;51.988;5.910;2023-02-28T21:02:36;3.30;97.80
47514;DHT22;33951;51.988;5.910;2023-02-28T21:05:02;3.30;98.00
47514;DHT22;33951;51.988;5.910;2023-02-28T21:18:28;3.10;99.00
47514;DHT22;33951;51.988;5.910;2023-02-28T21:52:06;2.90;99.90
47514;DHT22;33951;51.988;5.910;2023-02-28T22:06:54;2.70;99.90
47514;DHT22;33951;51.988;5.910;2023-02-28T22:09:58;2.70;99.90
47514;DHT22;33951;51.988;5.910;2023-02-28T22:15:50;2.60;99.90
47514;DHT22;33951;51.988;5.910;2023-02-28T22:18:16;2.60;99.90
47514;DHT22;33951;51.988;5.910;2023-02-28T22:20:42;2.50;99.90
47514;DHT22;33951;51.988;5.910;2023-02-28T22:23:07;2.50;99.90
47514;DHT22;33951;51.988;5.910;2023-02-28T22:25:36;2.50;99.90
47514;DHT22;33951;51.988;5.910;2023-02-28T22:28:02;2.60;99.90
47514;DHT22;33951;51.988;5.910;2023-02-28T22:30:27;2.50;99.90
47514;DHT22;33951;51.988;5.910;2023-02-28T22:32:55;2.60;99.90
47514;DHT22;33951;51.988;5.910;2023-02-28T22:35:21;2.50;99.90
47514;DHT22;33951;51.988;5.910;2023-02-28T22:37:47;2.50;99.90
47514;DHT22;33951;51.988;5.910;2023-02-28T22:40:13;2.50;99.90
47514;DHT22;33951;51.988;5.910;2023-02-28T22:42:38;2.50;99.90
47514;DHT22;33951;51.988;5.910;2023-02-28T22:45:04;2.50;99.90
47514;DHT22;33951;51.988;5.910;2023-02-28T22:47:30;2.40;99.90
47514;DHT22;33951;51.988;5.910;2023-02-28T22:49:55;2.50;99.90
47514;DHT22;33951;51.988;5.910;2023-02-28T22:52:21;2.40;99.90
47514;DHT22;33951;51.988;5.910;2023-02-28T22:54:50;2.30;99.90
47514;DHT22;33951;51.988;5.910;2023-02-28T22:57:16;2.30;99.90
47514;DHT22;33951;51.988;5.910;2023-02-28T22:59:42;2.40;99.90
47514;DHT22;33951;51.988;5.910;2023-02-28T23:02:07;2.40;99.90
47514;DHT22;33951;51.988;5.910;2023-02-28T23:04:33;2.40;99.90
47514;DHT22;33951;51.988;5.910;2023-02-28T23:07:02;2.40;99.90
47514;DHT22;33951;51.988;5.910;2023-02-28T23:09:27;2.20;99.90
47514;DHT22;33951;51.988;5.910;2023-02-28T23:11:57;2.30;99.90
47514;DHT22;33951;51.988;5.910;2023-02-28T23:14:23;2.30;99.90
47514;DHT22;33951;51.988;5.910;2023-02-28T23:16:59;2.30;99.90
47514;DHT22;33951;51.988;5.910;2023-02-28T23:19:27;2.20;99.90
47514;DHT22;33951;51.988;5.910;2023-02-28T23:21:57;2.10;99.90
47514;DHT22;33951;51.988;5.910;2023-02-28T23:24:25;2.20;99.90
47514;DHT22;33951;51.988;5.910;2023-02-28T23:26:53;2.30;99.90
47514;DHT22;33951;51.988;5.910;2023-02-28T23:29:20;2.30;99.90
47514;DHT22;33951;51.988;5.910;2023-02-28T23:31:47;2.10;99.90
47514;DHT22;33951;51.988;5.910;2023-02-28T23:34:14;2.20;99.90
47514;DHT22;33951;51.988;5.910;2023-02-28T23:36:40;2.10;99.90
47514;DHT22;33951;51.988;5.910;2023-02-28T23:39:15;2.10;99.90
47514;DHT22;33951;51.988;5.910;2023-02-28T23:41:40;2.00;99.90
47514;DHT22;33951;51.988;5.910;2023-02-28T23:44:06;2.00;99.90
47514;DHT22;33951;51.988;5.910;2023-02-28T23:46:32;2.00;99.90
47514;DHT22;33951;51.988;5.910;2023-02-28T23:49:01;2.10;99.90
47514;DHT22;33951;51.988;5.910;2023-02-28T23:51:26;2.20;99.90
47514;DHT22;33951;51.988;5.910;2023-02-28T23:53:52;2.20;99.90
47514;DHT22;33951;51.988;5.910;2023-02-28T23:56:20;2.00;99.90
47514;DHT22;33951;51.988;5.910;2023-02-28T23:58:47;2.10;99.90
